Carlisle Airport, United Kingdom

9:45 PM GMT on February 06, 2016 (GMT +0000)
Brampton, Cumbria | | Change Station
CLOSE
Current Station
Personal Weather Station
Location: Brampton, CUMBRIA
Elevation: 390 ft
Nearby Weather Stations

Elev 390 ft 54.94 °N, 2.73 °W | Updated 9 seconds ago

Partly Cloudy
Partly Cloudy
42.6 °F
Feels Like 38 °F
N
7.0
Wind Variable Wind from WSW
Gusts 18.0 mph

Today
High -- | Low -- °F
--% Chance of Precip.
Yesterday
High -- | Low -- °F
Precip. -- in
Pressure 28.88 in
Visibility 6.2 miles
Clouds Few 3000 ft
Windchill 38 °F
Dew Point 38 °F
Humidity 85%
Rainfall 0.11 in
Snow Depth Not available.
7:53 AM 4:57 PM
Waning Crescent, 4% visible
METAR EGNT 062120Z 22008KT 9999 FEW030 07/05 Q0978
Pressure 28.88 in
Visibility 6.2 miles
Clouds Few 3000 ft
Windchill 38 °F
Dew Point 38 °F
Humidity 85%
Rainfall 0.11 in
Snow Depth Not available.
7:53 AM 4:57 PM
Waning Crescent, 4% visible
METAR EGNT 062120Z 22008KT 9999 FEW030 07/05 Q0978

10-Day Weather Forecast

Almanac

Astronomy

Feb. 06, 2016 Rise Set
Actual Time
Civil Twilight
Nautical Twilight
Astronomical Twilight
Moon
Length of Visible Light
Length of Day
Tomorrow will be .
, % of the Moon is Illuminated

Today's Extremes

Country Highs Country Lows

Community

WunderPhotos

Upload Photos

1,891,051 photos uploaded!

WunderBlog® & News

Nearby

Air Quality

  Air Quality AQ Index Pollutant
Not available.

Snow Depth

Station Depth Elevation

Earthquake Activity

City Distance Mag. Time & Date
Minimum magnitude displayed is 2.5.

Coastal Water Temperatures

Place Temperature

Stations

Nearby Weather Stations

Station Location Temp. Windchill Dew Point Humidity Wind Precip. Elev Updated Type